createdAt,value
2022-08-12T00:00:52.416Z,55.00
2022-08-12T00:06:03.985Z,54.90
2022-08-12T00:11:09.852Z,55.30
2022-08-12T00:16:16.036Z,55.40
2022-08-12T00:21:20.217Z,55.40
2022-08-12T00:26:24.654Z,55.70
2022-08-12T00:31:27.261Z,56.20
2022-08-12T00:36:35.384Z,56.30
2022-08-12T00:41:41.666Z,56.80
2022-08-12T00:46:50.226Z,57.50
2022-08-12T00:51:54.457Z,58.20
2022-08-12T00:57:02.559Z,57.90
2022-08-12T01:02:11.023Z,58.20
2022-08-12T01:07:16.675Z,58.10
2022-08-12T01:12:21.378Z,58.30
2022-08-12T01:17:24.990Z,58.70
2022-08-12T01:22:34.565Z,59.00
2022-08-12T01:27:40.605Z,59.50
2022-08-12T01:32:46.924Z,59.90
2022-08-12T01:37:56.395Z,59.60
2022-08-12T01:43:05.478Z,61.10
2022-08-12T01:48:18.762Z,60.20
2022-08-12T01:53:25.261Z,61.10
2022-08-12T01:58:32.541Z,60.70
2022-08-12T02:04:03.249Z,60.60
2022-08-12T02:09:08.354Z,61.90
2022-08-12T02:14:34.448Z,60.10
2022-08-12T02:20:04.744Z,61.80
2022-08-12T02:25:10.491Z,61.80
2022-08-12T02:30:16.827Z,60.50
2022-08-12T02:35:22.970Z,60.50
2022-08-12T02:40:26.982Z,60.60
2022-08-12T02:45:38.255Z,60.30
2022-08-12T02:50:51.837Z,61.00
2022-08-12T02:55:54.656Z,60.30
2022-08-12T03:01:00.649Z,59.90
2022-08-12T03:06:07.269Z,60.20
2022-08-12T03:11:16.107Z,60.20
2022-08-12T03:16:20.218Z,60.60
2022-08-12T03:21:55.398Z,60.40
2022-08-12T03:26:48.114Z,60.50
2022-08-12T03:31:58.926Z,60.80
2022-08-12T03:37:02.941Z,60.90
2022-08-12T03:42:17.525Z,60.50
2022-08-12T03:47:25.657Z,61.00
2022-08-12T03:52:28.223Z,60.60
2022-08-12T03:57:30.844Z,60.40
2022-08-12T04:02:39.089Z,60.60
2022-08-12T04:07:51.317Z,61.10
2022-08-12T04:13:00.964Z,60.80
2022-08-12T04:18:06.976Z,61.00
2022-08-12T04:23:11.216Z,61.70
2022-08-12T04:28:25.783Z,62.40
2022-08-12T04:33:29.810Z,65.00
2022-08-12T04:38:33.525Z,63.10
2022-08-12T04:43:53.686Z,63.50
2022-08-12T04:49:00.728Z,64.10
2022-08-12T04:54:03.755Z,64.70
2022-08-12T04:59:06.737Z,64.50
2022-08-12T05:04:11.795Z,64.30
2022-08-12T05:09:15.091Z,63.60
2022-08-12T05:14:17.645Z,62.90
2022-08-12T05:19:22.534Z,62.00
2022-08-12T05:24:25.349Z,60.80
2022-08-12T05:30:07.388Z,59.60
2022-08-12T05:34:52.020Z,58.60
2022-08-12T05:39:54.513Z,57.20
2022-08-12T05:44:56.903Z,56.40
2022-08-12T05:50:00.672Z,56.00
2022-08-12T05:55:03.167Z,55.60
2022-08-12T06:00:07.535Z,55.20
2022-08-12T06:05:11.464Z,54.10
2022-08-12T06:10:14.055Z,53.50
2022-08-12T06:15:16.734Z,53.10
2022-08-12T06:20:28.036Z,52.30
2022-08-12T06:25:33.568Z,51.20
2022-08-12T06:30:38.914Z,50.20
2022-08-12T06:35:46.812Z,49.20
2022-08-12T06:40:55.244Z,47.90
2022-08-12T06:45:57.493Z,45.70
2022-08-12T06:51:02.088Z,46.40
2022-08-12T06:56:09.295Z,45.70
2022-08-12T07:01:14.591Z,46.10
2022-08-12T07:06:18.782Z,45.60
2022-08-12T07:11:21.241Z,45.40
2022-08-12T07:16:23.718Z,44.60
2022-08-12T07:22:00.264Z,44.10
2022-08-12T07:26:50.595Z,43.80
2022-08-12T07:31:53.214Z,43.30
2022-08-12T07:36:57.076Z,44.30
2022-08-12T07:41:59.577Z,45.20
2022-08-12T07:47:01.913Z,44.40
2022-08-12T07:52:05.982Z,45.30
2022-08-12T07:57:08.343Z,45.30
2022-08-12T08:02:10.897Z,45.10
2022-08-12T08:07:16.511Z,44.10
2022-08-12T08:12:19.777Z,44.00
2022-08-12T08:17:23.121Z,43.50
2022-08-12T08:22:41.965Z,42.80
2022-08-12T08:27:45.644Z,42.50
2022-08-12T08:32:48.102Z,41.20
2022-08-12T08:37:52.919Z,39.50
2022-08-12T08:42:55.139Z,38.90
2022-08-12T08:48:00.282Z,37.60
2022-08-12T08:53:04.375Z,37.10
2022-08-12T08:58:07.129Z,35.30
2022-08-12T09:04:21.322Z,35.90
2022-08-12T09:08:33.734Z,34.60
2022-08-12T09:14:12.349Z,34.50
2022-08-12T09:19:00.293Z,34.50
2022-08-12T09:24:05.995Z,36.00
2022-08-12T09:29:11.993Z,35.00
2022-08-12T09:34:28.652Z,35.90
2022-08-12T09:40:07.988Z,35.60
2022-08-12T09:45:17.760Z,32.30
2022-08-12T09:50:21.040Z,30.20
2022-08-12T09:56:07.168Z,29.10
2022-08-12T10:00:51.945Z,30.40
2022-08-12T10:06:20.071Z,31.80
2022-08-12T10:11:20.689Z,32.20
2022-08-12T10:16:25.675Z,31.60
2022-08-12T10:21:35.907Z,30.60
2022-08-12T10:26:42.795Z,30.90
2022-08-12T10:32:20.689Z,29.50
2022-08-12T10:37:23.249Z,29.90
2022-08-12T10:42:39.584Z,30.00
2022-08-12T10:48:07.133Z,29.10
2022-08-12T10:53:11.261Z,29.90
2022-08-12T10:58:28.046Z,28.50
2022-08-12T11:04:27.572Z,27.60
2022-08-12T11:08:56.627Z,28.90
2022-08-12T11:14:00.873Z,27.70
2022-08-12T11:19:05.600Z,27.50
2022-08-12T11:24:08.536Z,28.40
2022-08-12T11:30:06.231Z,28.90
2022-08-12T11:34:59.072Z,28.80
2022-08-12T11:40:01.985Z,28.50
2022-08-12T11:45:10.296Z,28.70
2022-08-12T11:50:19.568Z,29.20
2022-08-12T11:55:23.063Z,28.80
2022-08-12T12:05:49.861Z,28.60
2022-08-12T12:10:54.631Z,29.30
2022-08-12T12:16:01.207Z,28.20
2022-08-12T12:21:09.353Z,28.90
2022-08-12T12:26:34.766Z,29.00
2022-08-12T12:32:10.502Z,29.70
2022-08-12T12:37:00.988Z,29.90
2022-08-12T12:42:54.622Z,30.30
2022-08-12T12:47:30.215Z,29.80
2022-08-12T12:52:33.148Z,30.00
2022-08-12T12:57:59.334Z,30.50
2022-08-12T13:03:04.506Z,31.40
2022-08-12T13:08:20.806Z,30.40
2022-08-12T13:14:10.082Z,30.60
2022-08-12T13:18:57.002Z,31.40
2022-08-12T13:24:00.500Z,32.00
2022-08-12T13:29:02.931Z,31.80
2022-08-12T13:34:32.496Z,31.90
2022-08-12T13:39:29.298Z,31.80
2022-08-12T13:44:31.813Z,31.60
2022-08-12T13:49:53.963Z,31.70
2022-08-12T13:54:58.233Z,31.60
2022-08-12T14:00:01.813Z,31.80
2022-08-12T14:05:38.382Z,32.00
2022-08-12T14:10:31.535Z,32.50
2022-08-12T14:15:36.795Z,32.10
2022-08-12T14:20:43.673Z,32.30
2022-08-12T14:25:49.932Z,32.00
2022-08-12T14:30:59.969Z,31.70
2022-08-12T14:36:06.360Z,31.20
2022-08-12T14:41:13.147Z,31.80
2022-08-12T14:46:18.846Z,30.80
2022-08-12T14:52:54.145Z,31.10
2022-08-12T14:57:20.716Z,31.90
2022-08-12T15:02:11.505Z,31.90
2022-08-12T15:07:34.241Z,31.50
2022-08-12T15:12:40.730Z,31.60
2022-08-12T15:17:44.184Z,31.80
2022-08-12T15:22:54.193Z,31.00
2022-08-12T15:28:03.988Z,31.90
2022-08-12T15:33:12.379Z,33.00
2022-08-12T15:38:20.223Z,33.10
2022-08-12T15:43:52.057Z,32.80
2022-08-12T15:48:47.633Z,33.10
2022-08-12T15:53:54.920Z,33.00
2022-08-12T15:58:58.510Z,33.10
2022-08-12T16:04:01.709Z,33.00
2022-08-12T16:09:06.618Z,33.20
2022-08-12T16:14:12.549Z,33.40
2022-08-12T16:20:04.340Z,33.20
2022-08-12T16:24:42.689Z,33.80
2022-08-12T16:29:53.252Z,34.20
2022-08-12T16:34:57.719Z,34.60
2022-08-12T16:40:05.947Z,34.60
2022-08-12T16:45:13.642Z,34.90
2022-08-12T16:50:17.920Z,35.10
2022-08-12T16:55:22.203Z,35.10
2022-08-12T17:00:28.067Z,34.80
2022-08-12T17:05:30.949Z,34.90
2022-08-12T17:10:37.211Z,34.70
2022-08-12T17:15:56.989Z,34.90
2022-08-12T17:21:03.288Z,34.90
2022-08-12T17:26:10.520Z,34.80
2022-08-12T17:31:13.688Z,34.90
2022-08-12T17:36:16.327Z,34.80
2022-08-12T17:41:22.373Z,34.80
2022-08-12T17:46:33.303Z,35.00
2022-08-12T17:51:50.454Z,35.30
2022-08-12T17:56:57.771Z,36.20
2022-08-12T18:02:01.646Z,35.70
2022-08-12T18:07:06.342Z,35.80
2022-08-12T18:12:13.385Z,35.70
2022-08-12T18:17:15.925Z,36.00
2022-08-12T18:22:22.055Z,35.90
2022-08-12T18:27:44.334Z,36.00
2022-08-12T18:32:58.535Z,36.50
2022-08-12T18:38:01.825Z,36.50
2022-08-12T18:43:08.685Z,36.70
2022-08-12T18:48:20.365Z,37.00
2022-08-12T18:54:07.473Z,37.20
2022-08-12T18:58:53.199Z,37.30
2022-08-12T19:04:03.745Z,37.70
2022-08-12T19:09:10.727Z,37.70
2022-08-12T19:14:18.424Z,38.20
2022-08-12T19:20:01.451Z,38.50
2022-08-12T19:25:59.355Z,39.30
2022-08-12T19:44:16.889Z,40.00
2022-08-12T19:49:28.213Z,40.10
2022-08-12T19:54:30.695Z,40.40
2022-08-12T19:59:43.578Z,39.30
2022-08-12T20:06:06.333Z,40.00
2022-08-12T20:10:54.708Z,40.70
2022-08-12T20:16:00.034Z,41.60
2022-08-12T20:21:07.662Z,41.10
2022-08-12T20:26:17.619Z,42.10
2022-08-12T20:31:20.290Z,42.00
2022-08-12T20:36:41.675Z,42.20
2022-08-12T20:41:45.911Z,42.70
2022-08-12T20:46:54.232Z,42.70
2022-08-12T20:51:58.431Z,43.00
2022-08-12T20:57:08.702Z,43.40
2022-08-12T21:02:12.697Z,43.50
2022-08-12T21:07:20.394Z,43.70
2022-08-12T21:12:34.047Z,44.10
2022-08-12T21:18:00.579Z,44.20
2022-08-12T21:23:01.740Z,44.40
2022-08-12T21:28:04.696Z,44.80
2022-08-12T21:33:10.486Z,44.90
2022-08-12T21:38:14.860Z,45.20
2022-08-12T21:43:21.608Z,45.50
2022-08-12T21:48:24.786Z,45.80
2022-08-12T21:53:31.667Z,46.10
2022-08-12T21:58:52.008Z,46.80
2022-08-12T22:04:10.833Z,46.80
2022-08-12T22:09:17.564Z,47.00
2022-08-12T22:14:23.656Z,47.50
2022-08-12T22:19:27.036Z,47.60
2022-08-12T22:24:31.417Z,47.90
2022-08-12T22:29:33.940Z,48.70
2022-08-12T22:34:36.470Z,48.80
2022-08-12T22:39:43.984Z,49.30
2022-08-12T22:44:54.206Z,50.70
2022-08-12T22:49:59.867Z,50.80
2022-08-12T22:55:05.725Z,51.40
2022-08-12T23:00:23.443Z,52.50
2022-08-12T23:05:49.304Z,52.10
2022-08-12T23:10:51.967Z,52.80
2022-08-12T23:15:55.318Z,53.00
2022-08-12T23:20:58.518Z,53.50
2022-08-12T23:26:02.379Z,54.10
2022-08-12T23:31:06.385Z,55.80
2022-08-12T23:36:09.144Z,54.20
2022-08-12T23:41:16.964Z,54.00
2022-08-12T23:46:25.780Z,54.20
2022-08-12T23:51:32.067Z,54.00
2022-08-12T23:56:38.156Z,54.00
